Time;durP1;ratioP1;P1;durP2;ratioP2;P2;SDS_P1;SDS_P2;PMS_P1;PMS_P2;Temp;Humidity;BMP_temperature;BMP_pressure;BME280_temperature;BME280_humidity;BME280_pressure;Samples;Min_cycle;Max_cycle;Signal;HPM_P1;HPM_P2
2023/04/28 00:00:50;;;;;;;16.67;15.10;;;;;;;10.97;58.13;101199.63;5092040;28;20026;-58
2023/04/28 00:03:16;;;;;;;17.13;14.77;;;;;;;11.16;57.82;101196.75;5093448;28;20102;-58
2023/04/28 00:05:41;;;;;;;17.48;15.88;;;;;;;11.00;57.45;101202.09;5092157;28;20077;-58
2023/04/28 00:08:07;;;;;;;16.45;14.65;;;;;;;10.90;58.57;101192.00;5092951;28;20027;-58
2023/04/28 00:10:33;;;;;;;16.02;14.63;;;;;;;10.95;60.72;101189.09;5092290;28;20596;-58
2023/04/28 00:12:59;;;;;;;17.33;15.43;;;;;;;10.93;58.30;101185.66;5094249;28;20024;-58
2023/04/28 00:15:24;;;;;;;18.00;15.35;;;;;;;10.78;60.03;101175.91;5093232;28;20047;-58
2023/04/28 00:17:50;;;;;;;18.02;16.25;;;;;;;10.89;61.06;101184.13;5092350;28;20334;-58
2023/04/28 00:20:15;;;;;;;19.15;17.08;;;;;;;10.79;63.10;101178.47;5091510;28;20040;-58
2023/04/28 00:22:41;;;;;;;18.75;17.00;;;;;;;10.79;63.84;101173.16;5092783;28;20027;-58
2023/04/28 00:25:07;;;;;;;17.67;16.08;;;;;;;10.63;64.99;101170.53;5092922;28;20032;-58
2023/04/28 00:27:33;;;;;;;17.77;16.05;;;;;;;10.60;64.04;101165.41;5091598;28;20020;-58
2023/04/28 00:29:58;;;;;;;18.38;16.67;;;;;;;10.75;63.54;101170.78;5092349;28;20103;-58
2023/04/28 00:32:24;;;;;;;18.20;16.50;;;;;;;10.74;66.22;101174.41;5092824;28;20199;-58
2023/04/28 00:34:49;;;;;;;19.45;17.27;;;;;;;10.64;65.34;101161.59;5103685;28;20055;-58
2023/04/28 00:37:14;;;;;;;19.30;17.45;;;;;;;10.53;65.31;101149.88;5094284;28;20024;-58
2023/04/28 00:39:40;;;;;;;19.05;17.25;;;;;;;10.60;67.23;101124.66;5093044;28;20028;-58
2023/04/28 00:42:06;;;;;;;19.42;17.55;;;;;;;10.67;67.43;101131.31;5092529;28;20020;-58
2023/04/28 00:44:31;;;;;;;19.35;17.33;;;;;;;10.59;66.59;101123.81;5092618;28;20024;-58
2023/04/28 00:46:58;;;;;;;22.02;17.75;;;;;;;10.48;67.02;101131.56;5092399;28;20103;-58
2023/04/28 00:49:24;;;;;;;20.13;17.88;;;;;;;10.48;67.69;101122.72;5092314;28;20016;-58
2023/04/28 00:51:50;;;;;;;20.13;17.95;;;;;;;10.45;68.31;101126.41;5091752;28;20016;-58
2023/04/28 00:54:16;;;;;;;21.27;19.15;;;;;;;10.37;71.34;101123.34;5091247;28;20035;-58
2023/04/28 00:56:43;;;;;;;20.70;18.60;;;;;;;10.33;70.96;101116.50;5092689;28;20074;-58
2023/04/28 00:59:08;;;;;;;20.85;18.38;;;;;;;10.35;69.37;101107.50;5092560;28;20023;-58
2023/04/28 01:01:35;;;;;;;20.58;18.48;;;;;;;10.24;69.62;101092.09;5091231;28;20017;-58
2023/04/28 01:04:01;;;;;;;21.05;19.02;;;;;;;10.26;69.42;101110.63;5094571;28;20028;-58
2023/04/28 01:06:27;;;;;;;21.80;19.58;;;;;;;10.33;68.65;101113.84;5092377;28;20386;-58
2023/04/28 01:08:53;;;;;;;25.50;19.83;;;;;;;10.35;70.19;101107.50;5090987;28;20030;-58
2023/04/28 01:11:18;;;;;;;24.63;21.17;;;;;;;9.99;71.04;101107.72;5092190;28;20020;-58
2023/04/28 01:13:44;;;;;;;23.05;20.70;;;;;;;10.21;70.48;101116.22;5092147;28;20059;-58
2023/04/28 01:16:10;;;;;;;21.27;19.17;;;;;;;10.26;71.47;101112.41;5092328;28;20073;-58
2023/04/28 01:18:35;;;;;;;23.13;19.33;;;;;;;10.26;71.97;101104.44;5092130;28;20020;-58
2023/04/28 01:21:03;;;;;;;21.63;19.60;;;;;;;10.14;72.18;101088.25;5091527;28;20135;-58
2023/04/28 01:23:28;;;;;;;24.38;19.60;;;;;;;10.00;72.13;101081.09;5091851;28;20055;-58
2023/04/28 01:25:54;;;;;;;21.30;18.92;;;;;;;10.14;71.47;101067.00;5091660;28;20440;-58
2023/04/28 01:28:19;;;;;;;22.48;20.15;;;;;;;9.89;73.37;101067.56;5090661;28;20016;-58
2023/04/28 01:30:45;;;;;;;21.48;19.38;;;;;;;9.95;72.83;101080.50;5092017;28;20035;-58
2023/04/28 01:33:13;;;;;;;23.90;20.60;;;;;;;10.02;72.68;101068.56;5091528;28;20036;-58
2023/04/28 01:35:38;;;;;;;22.15;19.98;;;;;;;10.01;71.90;101076.63;5090883;28;20024;-58
2023/04/28 01:38:03;;;;;;;22.25;20.13;;;;;;;10.05;72.23;101070.19;5091237;28;20020;-58
2023/04/28 01:40:29;;;;;;;21.50;19.25;;;;;;;9.95;70.94;101058.38;5091965;28;20111;-58
2023/04/28 01:42:54;;;;;;;22.33;19.88;;;;;;;10.08;72.71;101063.84;5090220;28;20027;-58
2023/04/28 01:45:22;;;;;;;24.40;19.67;;;;;;;9.90;73.07;101063.94;5091672;28;20021;-58
2023/04/28 01:47:47;;;;;;;22.20;19.83;;;;;;;10.11;72.21;101068.97;5090430;28;20026;-58
2023/04/28 01:50:13;;;;;;;22.52;20.27;;;;;;;10.00;70.89;101056.31;5091891;28;20020;-58
2023/04/28 01:52:38;;;;;;;22.27;19.90;;;;;;;9.99;71.96;101059.91;5090224;28;20513;-58
2023/04/28 01:55:04;;;;;;;22.55;20.35;;;;;;;10.01;72.44;101056.22;5090577;28;20031;-58
2023/04/28 01:57:30;;;;;;;22.67;20.27;;;;;;;9.85;72.35;101051.84;5090343;28;20017;-58
2023/04/28 01:59:55;;;;;;;23.45;21.15;;;;;;;9.77;70.37;101052.31;5090047;28;20020;-58
2023/04/28 02:02:20;;;;;;;23.27;20.73;;;;;;;9.81;71.41;101045.88;5090363;28;20107;-58
2023/04/28 02:04:46;;;;;;;23.27;20.88;;;;;;;9.80;71.34;101046.81;5091868;28;20099;-58
2023/04/28 02:07:11;;;;;;;22.15;19.60;;;;;;;9.73;70.04;101053.41;5091254;28;20050;-58
2023/04/28 02:09:37;;;;;;;22.70;20.42;;;;;;;9.88;71.02;101065.84;5090493;28;20095;-58
2023/04/28 02:12:02;;;;;;;28.42;21.73;;;;;;;9.82;71.75;101058.19;5091259;28;20051;-58
2023/04/28 02:14:31;;;;;;;22.10;19.58;;;;;;;9.94;70.80;101057.53;5091473;28;20024;-58
2023/04/28 02:16:57;;;;;;;25.10;20.08;;;;;;;9.87;71.18;101057.97;5090062;28;20020;-58
2023/04/28 02:19:22;;;;;;;26.70;20.92;;;;;;;9.73;71.64;101048.09;5091442;28;20027;-58
2023/04/28 02:21:48;;;;;;;24.50;21.63;;;;;;;9.76;72.42;101040.84;5090819;28;20044;-58
2023/04/28 02:24:15;;;;;;;24.65;21.27;;;;;;;9.76;72.63;101034.66;5091033;28;20024;-58
2023/04/28 02:26:41;;;;;;;23.70;21.27;;;;;;;9.86;72.71;101027.03;5090154;28;20735;-58
2023/04/28 02:29:08;;;;;;;22.52;20.42;;;;;;;9.81;71.55;101042.38;5091394;28;20028;-58
2023/04/28 02:31:34;;;;;;;25.02;21.30;;;;;;;9.88;73.06;101019.81;5091507;28;20024;-58
2023/04/28 02:34:02;;;;;;;22.70;20.55;;;;;;;9.81;72.49;100997.22;5091318;28;20035;-58
2023/04/28 02:36:28;;;;;;;23.40;21.15;;;;;;;9.90;72.14;100989.56;5092416;28;20107;-58
2023/04/28 02:38:53;;;;;;;24.25;21.67;;;;;;;9.80;72.80;100984.88;5090291;28;20138;-58
2023/04/28 02:41:19;;;;;;;24.95;22.25;;;;;;;9.81;73.08;100968.00;5094015;28;20028;-58
2023/04/28 02:43:46;;;;;;;24.88;22.40;;;;;;;9.76;73.52;100963.81;5094834;28;20028;-58
2023/04/28 02:46:12;;;;;;;24.67;21.65;;;;;;;9.81;73.20;100958.22;5094774;28;20531;-58
2023/04/28 02:48:37;;;;;;;24.85;21.65;;;;;;;9.63;73.58;100943.34;5095211;28;20061;-58
2023/04/28 02:51:05;;;;;;;23.98;21.48;;;;;;;9.80;73.60;100942.38;5094176;28;20115;-58
2023/04/28 02:53:30;;;;;;;27.50;21.80;;;;;;;9.64;74.74;100940.59;5094300;28;20030;-58
2023/04/28 02:55:56;;;;;;;25.88;23.30;;;;;;;9.76;74.29;100961.16;5093920;28;20475;-58
2023/04/28 02:58:21;;;;;;;24.73;22.25;;;;;;;9.64;75.16;100963.63;5094670;28;20103;-58
2023/04/28 03:00:47;;;;;;;24.23;21.90;;;;;;;9.82;74.98;100962.56;5094874;28;20020;-58
2023/04/28 03:03:12;;;;;;;24.98;22.45;;;;;;;9.71;74.23;100959.72;5094672;28;20035;-58
2023/04/28 03:05:38;;;;;;;25.85;22.20;;;;;;;9.69;74.20;100946.50;5094733;28;20027;-58
2023/04/28 03:08:06;;;;;;;24.55;21.95;;;;;;;9.77;75.38;100957.53;5093949;28;20047;-58
2023/04/28 03:10:31;;;;;;;24.75;22.10;;;;;;;9.89;74.37;100965.75;5093273;28;20368;-57
2023/04/28 03:12:59;;;;;;;24.38;22.02;;;;;;;9.93;74.53;100961.97;5094271;28;20103;-58
2023/04/28 03:15:25;;;;;;;25.33;22.63;;;;;;;9.99;74.31;100958.94;5094477;28;20027;-58
2023/04/28 03:17:50;;;;;;;26.15;23.50;;;;;;;9.86;74.80;100956.16;5094404;28;20020;-58
2023/04/28 03:20:17;;;;;;;27.88;22.73;;;;;;;9.93;76.80;100962.81;5092983;28;20094;-58
2023/04/28 03:22:42;;;;;;;26.17;22.67;;;;;;;9.91;74.92;100967.38;5093130;28;20032;-58
2023/04/28 03:25:08;;;;;;;26.00;23.08;;;;;;;9.97;74.42;100964.34;5094165;28;20050;-58
2023/04/28 03:27:33;;;;;;;26.60;23.80;;;;;;;9.88;74.59;100967.56;5093916;28;20038;-58
2023/04/28 03:29:59;;;;;;;25.73;23.00;;;;;;;9.81;75.72;100963.53;5092865;28;20024;-58
2023/04/28 03:32:24;;;;;;;24.73;22.23;;;;;;;9.77;74.71;100965.50;5094099;28;20028;-58
2023/04/28 03:34:50;;;;;;;25.65;23.15;;;;;;;9.94;76.22;100963.66;5094247;28;20039;-58
2023/04/28 03:37:15;;;;;;;25.95;23.25;;;;;;;9.99;75.56;100956.28;5093565;28;20047;-58
2023/04/28 03:39:41;;;;;;;25.67;23.02;;;;;;;9.82;76.03;100951.09;5094241;28;20051;-58
2023/04/28 03:42:06;;;;;;;26.58;23.77;;;;;;;9.89;75.71;100941.84;5092257;28;20024;-58
2023/04/28 03:44:31;;;;;;;25.98;23.33;;;;;;;9.97;75.81;100951.06;5092627;28;20125;-58
2023/04/28 03:47:00;;;;;;;25.35;22.85;;;;;;;9.90;76.15;100944.38;5092309;28;20028;-58
2023/04/28 03:49:25;;;;;;;27.27;23.20;;;;;;;9.92;76.01;100931.03;5093801;28;20028;-58
2023/04/28 03:51:51;;;;;;;25.90;23.23;;;;;;;10.00;75.98;100934.09;5092123;28;20036;-58
2023/04/28 03:54:16;;;;;;;25.17;22.48;;;;;;;9.94;76.36;100942.41;5093511;28;20115;-58
2023/04/28 03:56:41;;;;;;;25.23;22.58;;;;;;;9.86;76.75;100921.63;5093384;28;20031;-58
2023/04/28 03:59:10;;;;;;;25.27;22.67;;;;;;;9.95;77.28;100920.22;5092239;28;20024;-57
2023/04/28 04:01:36;;;;;;;24.30;21.65;;;;;;;9.99;76.17;100919.09;5093468;28;20023;-57
2023/04/28 04:04:01;;;;;;;25.05;22.45;;;;;;;10.08;77.78;100928.31;5093658;28;20382;-57
2023/04/28 04:06:27;;;;;;;26.02;23.25;;;;;;;9.97;77.14;100927.16;5092870;28;20497;-58
2023/04/28 04:08:52;;;;;;;24.40;22.00;;;;;;;9.93;76.38;100917.63;5092114;28;20028;-58
2023/04/28 04:11:20;;;;;;;25.05;22.58;;;;;;;9.96;78.63;100935.22;5093061;28;20486;-57
2023/04/28 04:13:48;;;;;;;28.00;23.23;;;;;;;10.05;77.05;100920.53;5093548;28;20402;-58
2023/04/28 04:16:16;;;;;;;25.85;23.40;;;;;;;10.07;78.08;100930.13;5092892;28;20055;-58
2023/04/28 04:18:42;;;;;;;24.15;21.77;;;;;;;10.02;77.61;100933.03;5093444;28;20028;-57
2023/04/28 04:21:07;;;;;;;26.85;23.63;;;;;;;9.99;77.81;100932.38;5091423;28;20070;-58
2023/04/28 04:23:33;;;;;;;24.92;22.25;;;;;;;10.06;78.70;100931.06;5091857;28;20376;-57
2023/04/28 04:25:58;;;;;;;25.38;22.73;;;;;;;10.09;78.68;100941.53;5092787;28;20059;-58
2023/04/28 04:28:23;;;;;;;25.40;21.58;;;;;;;10.00;79.14;100921.66;5093125;28;20459;-57
2023/04/28 04:30:49;;;;;;;26.35;23.77;;;;;;;10.17;78.58;100931.25;5092297;28;20031;-57
2023/04/28 04:33:14;;;;;;;26.35;23.52;;;;;;;10.22;78.82;100931.84;5092764;28;20101;-58
2023/04/28 04:35:40;;;;;;;25.17;22.42;;;;;;;10.07;77.92;100914.16;5093146;28;20024;-58
2023/04/28 04:38:06;;;;;;;24.65;22.15;;;;;;;10.24;78.09;100911.34;5090952;28;20028;-58
2023/04/28 04:40:32;;;;;;;25.73;23.15;;;;;;;10.17;78.28;100907.34;5091477;28;20020;-58
2023/04/28 04:42:57;;;;;;;24.67;22.02;;;;;;;10.24;78.52;100903.38;5092799;28;20025;-57
2023/04/28 04:45:22;;;;;;;25.13;22.63;;;;;;;10.12;78.59;100885.53;5092688;28;20019;-58
2023/04/28 04:47:48;;;;;;;25.98;23.13;;;;;;;10.16;77.92;100887.03;5092649;28;20395;-58
2023/04/28 04:50:13;;;;;;;25.70;22.58;;;;;;;10.20;77.78;100874.41;5092384;28;20028;-58
2023/04/28 04:52:39;;;;;;;26.05;23.35;;;;;;;10.10;79.21;100868.81;5091995;28;20463;-58
2023/04/28 04:55:05;;;;;;;26.70;23.90;;;;;;;10.17;79.67;100887.88;5091104;28;20090;-58
2023/04/28 04:57:30;;;;;;;25.23;22.63;;;;;;;10.20;79.37;100883.22;5090748;28;20031;-58
2023/04/28 04:59:56;;;;;;;26.20;23.35;;;;;;;10.12;79.14;100893.50;5092469;28;20024;-58
2023/04/28 05:02:21;;;;;;;26.15;23.48;;;;;;;10.10;80.26;100892.72;5092058;28;20103;-58
2023/04/28 05:04:47;;;;;;;26.85;22.25;;;;;;;10.07;80.22;100887.59;5091339;28;20064;-58
2023/04/28 05:07:13;;;;;;;26.02;23.52;;;;;;;10.07;80.12;100892.91;5091290;28;20024;-58
2023/04/28 05:09:38;;;;;;;26.58;23.42;;;;;;;9.99;80.07;100874.75;5092360;28;20467;-58
2023/04/28 05:12:04;;;;;;;28.10;24.92;;;;;;;10.12;81.23;100882.03;5091055;28;20028;-58
2023/04/28 05:14:29;;;;;;;26.27;23.35;;;;;;;10.11;81.15;100877.63;5092343;28;20030;-58
2023/04/28 05:16:55;;;;;;;25.67;23.15;;;;;;;10.20;81.03;100885.88;5092020;28;20075;-58
2023/04/28 05:19:21;;;;;;;25.85;23.27;;;;;;;10.24;80.95;100881.25;5092228;28;20028;-58
2023/04/28 05:21:47;;;;;;;27.83;22.70;;;;;;;10.23;81.48;100879.53;5091312;28;20467;-58
2023/04/28 05:24:20;;;;;;;28.85;23.80;;;;;;;10.29;81.73;100891.63;5091689;28;20035;-58
2023/04/28 05:26:46;;;;;;;25.45;22.92;;;;;;;10.22;80.87;100886.66;5091882;28;20387;-58
2023/04/28 05:29:11;;;;;;;25.85;23.13;;;;;;;10.26;80.98;100889.13;5094377;28;20035;-58
2023/04/28 05:31:37;;;;;;;26.02;23.33;;;;;;;10.29;82.41;100896.94;5093248;28;20088;-58
2023/04/28 05:34:02;;;;;;;27.95;24.55;;;;;;;10.28;82.95;100892.59;5090764;28;20114;-58
2023/04/28 05:36:30;;;;;;;24.90;22.30;;;;;;;10.29;81.82;100892.47;5091215;28;20020;-58
2023/04/28 05:38:56;;;;;;;25.10;22.60;;;;;;;10.24;82.26;100874.13;5091531;28;20485;-58
2023/04/28 05:41:21;;;;;;;29.63;24.77;;;;;;;10.34;82.33;100890.41;5091534;28;20028;-58
2023/04/28 05:43:49;;;;;;;25.95;23.23;;;;;;;10.30;82.48;100882.72;5091931;28;20129;-58
2023/04/28 05:46:15;;;;;;;25.52;22.85;;;;;;;10.39;81.96;100887.47;5090110;28;20463;-58
2023/04/28 05:48:41;;;;;;;27.10;23.52;;;;;;;10.46;82.00;100886.13;5091965;28;20028;-58
2023/04/28 05:51:06;;;;;;;26.50;23.77;;;;;;;10.49;82.78;100888.59;5089616;28;20176;-58
2023/04/28 05:53:32;;;;;;;26.60;23.73;;;;;;;10.54;82.10;100886.53;5090179;28;20074;-58
2023/04/28 05:56:00;;;;;;;26.48;23.67;;;;;;;10.57;82.81;100875.69;5090179;28;20039;-58
2023/04/28 05:58:25;;;;;;;27.60;23.67;;;;;;;10.60;82.51;100872.84;5093585;28;20486;-58
2023/04/28 06:00:50;;;;;;;27.98;24.15;;;;;;;10.57;82.99;100872.19;5092041;28;20063;-58
2023/04/28 06:03:17;;;;;;;25.27;22.60;;;;;;;10.58;84.15;100871.22;5095355;28;20051;-58
2023/04/28 06:05:44;;;;;;;27.17;24.00;;;;;;;10.59;84.18;100871.13;5090066;28;20027;-58
2023/04/28 06:08:09;;;;;;;26.38;23.23;;;;;;;10.54;84.33;100867.91;5091162;28;20059;-58
2023/04/28 06:10:35;;;;;;;27.20;23.65;;;;;;;10.58;84.83;100884.50;5090801;28;20059;-58
2023/04/28 06:13:03;;;;;;;25.67;23.10;;;;;;;10.58;85.16;100876.53;5091514;28;20032;-58
2023/04/28 06:15:29;;;;;;;25.63;23.02;;;;;;;10.63;85.50;100864.66;5093207;28;20110;-58
2023/04/28 06:17:54;;;;;;;24.98;22.23;;;;;;;10.75;85.58;100865.69;5095313;28;20550;-58
2023/04/28 06:20:20;;;;;;;25.20;22.20;;;;;;;10.74;85.90;100865.81;5100164;28;20048;-58
2023/04/28 06:22:45;;;;;;;26.08;22.92;;;;;;;10.73;86.71;100872.06;5094147;28;20494;-58
2023/04/28 06:25:11;;;;;;;25.42;22.80;;;;;;;10.77;86.98;100863.78;5097026;28;20023;-58
2023/04/28 06:27:36;;;;;;;24.30;21.40;;;;;;;10.84;87.57;100869.56;5100153;28;20034;-58
2023/04/28 06:30:02;;;;;;;24.10;21.75;;;;;;;10.78;88.30;100862.84;5095033;28;20032;-58
2023/04/28 06:32:27;;;;;;;26.13;21.90;;;;;;;10.76;89.25;100869.19;5094563;28;20500;-58
2023/04/28 06:34:52;;;;;;;24.17;21.80;;;;;;;10.81;89.33;100867.09;5095129;28;20028;-58
2023/04/28 06:37:18;;;;;;;26.10;23.42;;;;;;;10.84;90.42;100869.56;5094379;28;20497;-58
2023/04/28 06:39:43;;;;;;;24.13;21.67;;;;;;;10.87;90.83;100858.72;5095205;28;20027;-58
2023/04/28 06:42:09;;;;;;;22.27;19.55;;;;;;;10.94;91.58;100867.16;5099506;28;20070;-58
2023/04/28 06:44:34;;;;;;;24.50;22.02;;;;;;;10.83;93.10;100867.88;5094764;28;20482;-58
2023/04/28 06:47:00;;;;;;;24.02;21.50;;;;;;;10.92;93.72;100875.25;5094076;28;20478;-58
2023/04/28 06:49:26;;;;;;;24.83;22.17;;;;;;;10.95;94.58;100872.41;5094258;28;20035;-58
2023/04/28 06:51:51;;;;;;;23.40;20.75;;;;;;;10.81;95.49;100856.47;5094235;28;20544;-58
2023/04/28 06:54:17;;;;;;;24.42;21.88;;;;;;;10.82;96.93;100861.69;5094958;28;20430;-58
2023/04/28 06:56:42;;;;;;;25.13;22.52;;;;;;;10.78;98.51;100864.66;5094768;28;20095;-58
2023/04/28 06:59:08;;;;;;;23.45;21.15;;;;;;;10.83;98.73;100852.75;5091680;28;20040;-58
2023/04/28 07:01:35;;;;;;;24.17;21.88;;;;;;;10.89;99.86;100864.81;5088917;28;20459;-58
2023/04/28 07:04:01;;;;;;;24.42;21.85;;;;;;;10.93;99.44;100852.16;5093694;28;20032;-58
2023/04/28 07:06:27;;;;;;;24.02;21.73;;;;;;;10.96;100.00;100850.16;5091701;28;20075;-58
2023/04/28 07:08:53;;;;;;;24.85;22.05;;;;;;;11.04;100.00;100853.19;5092319;28;20127;-58
2023/04/28 07:11:18;;;;;;;22.83;20.55;;;;;;;11.19;100.00;100855.78;5093869;28;20506;-58
2023/04/28 07:13:48;;;;;;;24.20;21.77;;;;;;;11.21;100.00;100854.75;5092512;28;20034;-59
2023/04/28 07:16:13;;;;;;;24.65;22.23;;;;;;;11.25;100.00;100855.41;5094837;28;20015;-58
2023/04/28 07:18:39;;;;;;;24.45;22.00;;;;;;;11.36;100.00;100847.56;5091868;28;20020;-58
2023/04/28 07:21:04;;;;;;;23.65;21.35;;;;;;;11.25;100.00;100842.09;5092834;28;20143;-58
2023/04/28 07:23:30;;;;;;;23.17;20.77;;;;;;;11.39;100.00;100849.16;5102505;28;20069;-58
2023/04/28 07:25:57;;;;;;;23.65;21.17;;;;;;;11.40;100.00;100857.03;5096589;28;20701;-58
2023/04/28 07:28:22;;;;;;;23.75;21.48;;;;;;;11.45;100.00;100848.75;5093431;28;20471;-58
2023/04/28 07:30:47;;;;;;;23.52;21.13;;;;;;;11.50;100.00;100859.94;5097028;28;20059;-58
2023/04/28 07:33:13;;;;;;;22.27;19.98;;;;;;;11.46;100.00;100853.97;5093061;28;20448;-58
2023/04/28 07:35:38;;;;;;;24.17;21.67;;;;;;;11.42;100.00;100863.13;5093366;28;20048;-58
2023/04/28 07:38:04;;;;;;;23.20;20.90;;;;;;;11.40;100.00;100864.19;5092841;28;20482;-58
2023/04/28 07:40:29;;;;;;;24.48;21.98;;;;;;;11.41;100.00;100857.88;5093227;28;20034;-58
2023/04/28 07:42:54;;;;;;;22.60;20.20;;;;;;;11.48;100.00;100869.84;5091463;28;20015;-58
2023/04/28 07:45:20;;;;;;;24.08;21.77;;;;;;;11.52;100.00;100874.84;5091369;28;20031;-58
2023/04/28 07:47:45;;;;;;;24.92;22.55;;;;;;;11.53;100.00;100859.72;5080615;28;20036;-58
2023/04/28 07:50:11;;;;;;;24.35;21.85;;;;;;;11.49;100.00;100864.41;5098006;28;20038;-58
2023/04/28 07:52:39;;;;;;;25.73;23.33;;;;;;;11.52;100.00;100871.34;5091162;28;20110;-58
2023/04/28 07:55:05;;;;;;;24.33;21.92;;;;;;;11.54;100.00;100869.44;5092938;28;20379;-58
2023/04/28 07:57:30;;;;;;;25.65;23.33;;;;;;;11.52;100.00;100853.56;5093197;28;20008;-58
2023/04/28 07:59:55;;;;;;;26.20;23.73;;;;;;;11.53;100.00;100862.38;5091304;28;20028;-58
2023/04/28 08:02:24;;;;;;;27.10;24.42;;;;;;;11.27;100.00;100827.72;5092298;28;20016;-58
2023/04/28 08:04:50;;;;;;;24.67;22.20;;;;;;;11.57;100.00;100861.25;5092572;28;20024;-58
2023/04/28 08:07:15;;;;;;;26.52;23.85;;;;;;;11.64;100.00;100859.00;5097778;28;20042;-58
2023/04/28 08:09:45;;;;;;;28.40;25.60;;;;;;;11.62;100.00;100863.59;5091287;28;20024;-58
2023/04/28 08:12:13;;;;;;;28.58;25.77;;;;;;;11.57;100.00;100861.25;5092593;28;20012;-58
2023/04/28 08:14:38;;;;;;;28.67;26.08;;;;;;;11.62;100.00;100864.47;5092392;28;20038;-58
2023/04/28 08:17:04;;;;;;;29.10;26.23;;;;;;;11.64;100.00;100869.66;5090932;28;20020;-58
2023/04/28 08:19:29;;;;;;;28.65;25.88;;;;;;;11.63;100.00;100863.50;5092069;28;20115;-57
2023/04/28 08:21:55;;;;;;;31.45;28.13;;;;;;;11.62;100.00;100866.25;5091935;28;20032;-58
2023/04/28 08:24:20;;;;;;;29.55;26.75;;;;;;;11.68;100.00;100871.19;5093871;28;20048;-58
2023/04/28 08:26:46;;;;;;;31.95;28.88;;;;;;;11.70;100.00;100864.78;5090930;28;20402;-58
2023/04/28 08:29:11;;;;;;;32.08;29.10;;;;;;;11.68;100.00;100868.53;5090711;28;20024;-58
2023/04/28 08:31:37;;;;;;;31.65;28.58;;;;;;;11.65;100.00;100874.03;5096807;28;20026;-58
2023/04/28 08:34:03;;;;;;;32.10;29.00;;;;;;;11.63;100.00;100862.66;5092231;28;20031;-58
2023/04/28 08:36:31;;;;;;;33.58;30.27;;;;;;;11.72;100.00;100868.19;5092066;28;20051;-58
2023/04/28 08:38:58;;;;;;;34.08;30.98;;;;;;;11.83;100.00;100865.66;5095137;28;20030;-58
2023/04/28 08:41:28;;;;;;;34.92;31.52;;;;;;;11.97;100.00;100866.56;5095790;28;20136;-58
2023/04/28 08:43:53;;;;;;;32.75;29.60;;;;;;;11.94;100.00;100864.09;5094306;28;20027;-58
2023/04/28 08:46:21;;;;;;;33.42;29.92;;;;;;;11.92;100.00;100858.88;5082856;28;20075;-58
2023/04/28 08:48:48;;;;;;;33.65;30.45;;;;;;;12.01;100.00;100871.59;5098127;28;20028;-58
2023/04/28 08:51:23;;;;;;;30.95;27.98;;;;;;;11.99;100.00;100873.50;5088672;28;20077;-58
2023/04/28 08:53:55;;;;;;;33.70;30.67;;;;;;;12.00;100.00;100863.69;5086571;28;20442;-58
2023/04/28 08:56:26;;;;;;;34.25;30.60;;;;;;;12.08;100.00;100866.66;5070793;28;20016;-58
2023/04/28 08:58:52;;;;;;;33.40;30.05;;;;;;;12.16;100.00;100877.66;5071035;28;20426;-58
2023/04/28 09:01:18;;;;;;;32.60;29.73;;;;;;;12.23;100.00;100884.25;5070458;28;20017;-58
2023/04/28 09:03:43;;;;;;;32.30;29.20;;;;;;;12.24;100.00;100877.16;5072250;28;20368;-58
2023/04/28 09:06:09;;;;;;;31.95;29.02;;;;;;;12.33;100.00;100876.50;5071665;28;20024;-58
2023/04/28 09:08:34;;;;;;;32.30;29.13;;;;;;;12.28;100.00;100862.63;5070694;28;20104;-58
2023/04/28 09:11:06;;;;;;;33.38;30.02;;;;;;;12.38;100.00;100876.16;5071912;28;20464;-58
2023/04/28 09:13:32;;;;;;;33.78;30.67;;;;;;;12.46;100.00;100864.00;5070805;28;20036;-58
2023/04/28 09:16:01;;;;;;;29.23;26.58;;;;;;;12.39;100.00;100864.56;5070497;28;20073;-58
2023/04/28 09:18:27;;;;;;;;;;;;;;;12.59;100.00;100868.44;5072330;28;20104;-58
2023/04/28 09:21:02;;;;;;;31.92;28.77;;;;;;;12.64;100.00;100874.31;5071798;28;20073;-58
2023/04/28 09:23:27;;;;;;;33.42;30.13;;;;;;;12.66;100.00;100867.06;5087514;28;20678;-58
2023/04/28 09:25:58;;;;;;;33.00;29.90;;;;;;;12.71;100.00;100865.78;5070576;28;20017;-58
2023/04/28 09:28:25;;;;;;;34.53;31.30;;;;;;;12.73;100.00;100869.19;5070630;28;20108;-58
2023/04/28 09:30:51;;;;;;;33.70;30.50;;;;;;;12.73;100.00;100869.19;5071715;28;20039;-58
2023/04/28 09:33:16;;;;;;;35.05;31.70;;;;;;;12.75;100.00;100860.22;5070435;28;20025;-58
2023/04/28 09:35:44;;;;;;;35.78;32.17;;;;;;;12.86;100.00;100881.66;5072022;28;20026;-58
2023/04/28 09:38:10;;;;;;;36.90;33.35;;;;;;;12.88;100.00;100871.69;5087145;28;20019;-58
2023/04/28 09:40:52;;;;;;;34.83;31.42;;;;;;;12.85;100.00;100875.47;5071671;28;20024;-58
2023/04/28 09:43:26;;;;;;;34.50;31.23;;;;;;;12.86;100.00;100877.16;5070334;28;20174;-58
2023/04/28 09:45:52;;;;;;;35.97;32.38;;;;;;;12.82;100.00;100870.31;5075605;28;20020;-58
2023/04/28 09:48:26;;;;;;;37.08;33.53;;;;;;;12.77;100.00;100885.00;5091329;28;20050;-58
2023/04/28 09:50:54;;;;;;;39.30;35.65;;;;;;;12.78;100.00;100878.69;5094391;28;20110;-58
2023/04/28 09:53:22;;;;;;;42.70;38.40;;;;;;;12.69;100.00;100878.38;5095799;28;20483;-58
2023/04/28 09:55:50;;;;;;;52.15;46.47;;;;;;;12.69;100.00;100874.84;5096198;28;20052;-58
2023/04/28 09:58:19;;;;;;;61.22;52.67;;;;;;;12.70;100.00;100884.56;5094709;28;20035;-58
2023/04/28 10:00:45;;;;;;;65.68;55.63;;;;;;;12.76;100.00;100884.13;5095889;28;20027;-58
2023/04/28 10:03:11;;;;;;;67.97;56.38;;;;;;;12.73;100.00;100890.56;5095889;28;20022;-58
2023/04/28 10:05:39;;;;;;;69.20;58.50;;;;;;;12.71;100.00;100880.94;5094549;28;20482;-58
2023/04/28 10:08:05;;;;;;;66.30;55.97;;;;;;;12.82;100.00;100881.00;5095148;28;20555;-59
2023/04/28 10:10:30;;;;;;;67.50;56.20;;;;;;;12.80;100.00;100876.75;5095550;28;20131;-58
2023/04/28 10:12:59;;;;;;;65.65;55.20;;;;;;;12.82;100.00;100883.66;5095297;28;20494;-58
2023/04/28 10:15:24;;;;;;;65.17;57.60;;;;;;;12.92;100.00;100886.56;5095653;28;20045;-58
2023/04/28 10:17:51;;;;;;;64.72;57.72;;;;;;;12.93;100.00;100886.41;5094015;28;20024;-58
2023/04/28 10:20:20;;;;;;;64.60;55.88;;;;;;;12.99;100.00;100878.94;5093949;28;20518;-58
2023/04/28 10:23:02;;;;;;;60.80;54.17;;;;;;;13.01;100.00;100880.53;5095318;28;20039;-58
2023/04/28 10:25:34;;;;;;;61.25;54.50;;;;;;;13.04;100.00;100872.31;5095421;28;20387;-57
2023/04/28 10:28:03;;;;;;;60.45;53.92;;;;;;;13.09;100.00;100870.16;5095043;28;20056;-58
2023/04/28 10:30:31;;;;;;;58.80;52.92;;;;;;;13.12;100.00;100879.75;5094901;28;20502;-58
2023/04/28 10:33:12;;;;;;;55.65;50.03;;;;;;;13.20;100.00;100885.38;5094378;28;20120;-58
2023/04/28 10:35:39;;;;;;;55.08;49.53;;;;;;;13.21;100.00;100879.09;5092257;28;20141;-58
2023/04/28 10:38:11;;;;;;;54.33;48.65;;;;;;;13.29;100.00;100879.38;5094370;28;20061;-58
2023/04/28 10:40:43;;;;;;;51.25;46.35;;;;;;;13.36;100.00;100877.13;5094815;28;20028;-58
2023/04/28 10:43:24;;;;;;;53.65;48.20;;;;;;;13.45;100.00;100876.44;5095028;28;20485;-58
2023/04/28 10:45:55;;;;;;;50.05;45.38;;;;;;;13.47;100.00;100877.19;5094908;28;20020;-58
2023/04/28 10:48:32;;;;;;;46.88;42.78;;;;;;;13.51;100.00;100875.97;5094929;28;20036;-58
2023/04/28 10:51:04;;;;;;;45.63;41.40;;;;;;;13.54;100.00;100872.22;5094519;28;20081;-58
2023/04/28 10:53:45;;;;;;;44.53;40.13;;;;;;;13.58;100.00;100869.19;5094875;28;20090;-58
2023/04/28 10:56:10;;;;;;;42.63;38.83;;;;;;;13.61;100.00;100866.28;5093570;28;20101;-58
2023/04/28 10:58:42;;;;;;;41.10;37.33;;;;;;;13.67;100.00;100866.81;5094608;28;20024;-58
2023/04/28 11:01:26;;;;;;;39.20;35.80;;;;;;;13.76;100.00;100876.78;5094364;28;20028;-58
2023/04/28 11:03:58;;;;;;;38.97;35.13;;;;;;;13.85;100.00;100852.91;5094600;28;20482;-58
2023/04/28 11:06:41;;;;;;;38.60;35.00;;;;;;;13.97;100.00;100861.81;5093991;28;20497;-58